Terminal Aerodrome Forecast
Issued by NWS

Current Version | Previous Version | Graphics & Text | Print | Product List | Glossary On
Versions: 1 2 3 4 5 6 7 8 9 10 11 12
000
FTUS41 KRNK 201739
TAFLWB
TAF
KLWB 201739Z 2018/2118 35008KT P6SM SKC
     FM202200 36004KT P6SM SKC
     FM210300 00000KT P6SM SKC=

USA.gov is the U.S. government's official web portal to all federal, state and local government web resources and services.